• Join FlightAware (Why Join?)
  • Login
  • US Flag 
08:18PM EST


 

Airport Tracker/Info


-or-


 

Live Flight TrackerFlight Track Log ✈ PDT4236 ✈ 25-May-2013 ✈ KCLT - KHTS

Flight Track Log - Related Links

Times and Time Zones

All times are in EDT time to prevent confusion due to time zone crossing. See the PDT4236 flight status page for this flight to view local times or setup timezone preferences in your user account.

Time Position Orientation Groundspeed Altitude Reporting Facility
EDT Latitude Longitude Course Direction KTS MPH feet Rate Location/Type
02:56PM 35.2017 -80.9531 321° Northwest 128 147 1,300  Level Atlanta Center
02:57PM 35.1817 -80.9869 234° Southwest 143 165 2,700 1,317 Climbing Atlanta Center
02:58PM 35.1789 -81.0378 266° West 159 183 4,000 1,122 Climbing Atlanta Center
02:59PM 35.3813 -81.0240 338° Northwest  Level FlightAware Approximate
02:59PM 35.1800 -81.0936 271° West 174 200 5,000  Level Atlanta Center
03:00PM 35.4549 -81.0490 347° North  Level FlightAware Approximate
03:00PM 35.1903 -81.1669 280° West 206 237 6,300  Level Atlanta Center
03:01PM 35.5268 -81.0768 321° Northwest  Level FlightAware Approximate
03:01PM 35.2114 -81.1839 327° Northwest 149 171 7,400  Level Atlanta Center
03:01PM 35.2303 -81.1883 349° North 157 181 8,000 1,300 Climbing Atlanta Center
03:02PM 35.2575 -81.1850 North 170 196 8,700 1,125 Climbing Atlanta Center
03:03PM 35.3053 -81.1758 North 175 201 9,800 1,050 Climbing Atlanta Center
03:04PM 35.3508 -81.1639 12° North 180 207 10,800 1,050 Climbing Atlanta Center
03:05PM 35.4006 -81.1469 16° North 180 207 11,900 1,000 Climbing Atlanta Center
03:06PM 35.4461 -81.1350 12° North 180 207 12,800 850 Climbing Atlanta Center
03:07PM 35.4978 -81.1156 17° North 186 214 13,600 850 Climbing Atlanta Center
03:08PM 35.5494 -81.0958 17° North 186 214 14,500 850 Climbing Atlanta Center
03:09PM 35.5936 -81.1094 346° North 168 193 15,300 750 Climbing Atlanta Center
03:10PM 35.6378 -81.1283 341° North 161 185 16,000 650 Climbing Atlanta Center
03:11PM 35.6822 -81.1547 334° Northwest 173 199 16,600 800 Climbing Atlanta Center
03:12PM 35.7267 -81.1764 338° Northwest 173 199 17,600 750 Climbing Atlanta Center
03:13PM 35.7689 -81.1978 338° Northwest 168 193 18,100 600 Climbing Atlanta Center
03:14PM 35.8089 -81.2194 336° Northwest 163 188 18,800 750 Climbing Atlanta Center
03:15PM 35.8511 -81.2411 337° Northwest 163 188 19,600 700 Climbing Atlanta Center
03:16PM 35.8933 -81.2600 340° North 158 182 20,200 500 Climbing Atlanta Center
03:17PM 35.9333 -81.2819 336° Northwest 158 182 20,600 400 Climbing Atlanta Center
03:18PM 35.9778 -81.3033 339° North 158 182 21,000 400 Climbing Atlanta Center
03:19PM 36.0219 -81.3275 336° Northwest 158 182 21,400 400 Climbing Atlanta Center
03:20PM 36.0664 -81.3492 338° Northwest 158 182 21,800 300 Climbing Atlanta Center
03:21PM 36.1086 -81.3683 340° North 158 182 22,000 100 Climbing Atlanta Center
03:22PM 36.1550 -81.3925 337° Northwest 164 189 22,000  Level Atlanta Center
03:23PM 36.2033 -81.4167 338° Northwest 179 206 22,000  Level Atlanta Center
03:24PM 36.2542 -81.4458 335° Northwest 185 213 22,000  Level Atlanta Center
03:25PM 36.3047 -81.4728 337° Northwest 195 224 22,000  Level Atlanta Center
03:26PM 36.3594 -81.4967 341° North 201 231 22,000  Level Atlanta Center
03:27PM 36.4100 -81.5261 335° Northwest 201 231 22,000  Level Atlanta Center
03:28PM 36.4647 -81.5528 339° North 201 231 22,000  Level Atlanta Center
03:29PM 36.5092 -81.5772 336° Northwest 201 231 22,000  Level Atlanta Center
03:30PM 36.5639 -81.6067 337° Northwest 195 224 22,000  Level Atlanta Center
03:31PM 36.6167 -81.6333 338° Northwest 200 230 22,000  Level Atlanta Center
03:32PM 36.6692 -81.6603 338° Northwest 200 230 22,000  Level Atlanta Center
03:33PM 36.7281 -81.6897 338° Northwest 200 230 22,000  Level Atlanta Center
03:34PM 36.7831 -81.7192 337° Northwest 200 230 22,000  Level Atlanta Center
03:36PM 36.9036 -81.7794 338° Northwest 206 237 22,000  Level Indianapolis Center
03:37PM 36.9567 -81.8069 338° Northwest 206 237 22,000  Level Indianapolis Center
03:38PM 37.0097 -81.8350 337° Northwest 206 237 22,000  Level Indianapolis Center
03:39PM 37.0706 -81.8667 337° Northwest 203 234 22,000 -195 Level Indianapolis Center
03:40PM 37.1233 -81.8953 337° Northwest 205 236 21,600 -488 Descending Indianapolis Center
03:41PM 37.1808 -81.9250 338° Northwest 220 253 21,000 -683 Descending Indianapolis Center
03:42PM 37.2403 -81.9569 337° Northwest 228 262 20,200 -829 Descending Indianapolis Center
03:43PM 37.3044 -81.9897 338° Northwest 241 277 19,300 -927 Descending Indianapolis Center
03:44PM 37.3700 -82.0253 337° Northwest 253 291 18,300 -780 Descending Indianapolis Center
03:45PM 37.4356 -82.0583 338° Northwest 254 292 17,700 -780 Descending Indianapolis Center
03:46PM 37.5014 -82.0944 336° Northwest 255 293 16,700 -1,024 Descending Indianapolis Center
03:47PM 37.5761 -82.1328 338° Northwest 249 287 15,600 -1,171 Descending Indianapolis Center
03:48PM 37.6411 -82.1681 337° Northwest 254 292 14,300 -1,512 Descending Indianapolis Center
03:50PM 37.7036 -82.2008 337° Northwest 244 281 12,500 -1,756 Descending Indianapolis Center
03:51PM 37.7661 -82.2342 337° Northwest 243 280 10,700 -1,756 Descending Indianapolis Center
03:52PM 37.8294 -82.2681 337° Northwest 246 283 8,900 -1,610 Descending Indianapolis Center
03:53PM 37.8900 -82.3003 337° Northwest 241 277 7,400 -1,317 Descending Indianapolis Center
03:54PM 37.9506 -82.3339 336° Northwest 238 274 6,200 -1,171 Descending Indianapolis Center
03:55PM 38.0203 -82.3703 338° Northwest 234 269 5,000 -1,024 Descending Indianapolis Center
03:56PM 38.0833 -82.4036 337° Northwest 240 276 4,100 -780 Descending Indianapolis Center
03:57PM 38.1456 -82.4389 336° Northwest 242 278 3,400 -537 Descending Indianapolis Center
03:58PM 38.2067 -82.4708 338° Northwest 238 274 3,000 -393 Descending Indianapolis Center